sensor_id;sensor_type;location;lat;lon;timestamp;temperature;humidity
43651;DHT22;29247;50.944;5.382;2023-02-28T00:01:12;2.80;72.10
43651;DHT22;29247;50.944;5.382;2023-02-28T00:03:41;2.80;72.20
43651;DHT22;29247;50.944;5.382;2023-02-28T00:06:07;2.70;72.20
43651;DHT22;29247;50.944;5.382;2023-02-28T00:08:36;2.70;72.20
43651;DHT22;29247;50.944;5.382;2023-02-28T00:11:07;2.70;72.20
43651;DHT22;29247;50.944;5.382;2023-02-28T00:13:35;2.70;72.20
43651;DHT22;29247;50.944;5.382;2023-02-28T00:16:13;2.70;72.20
43651;DHT22;29247;50.944;5.382;2023-02-28T00:18:44;2.70;72.30
43651;DHT22;29247;50.944;5.382;2023-02-28T00:21:09;2.70;72.20
43651;DHT22;29247;50.944;5.382;2023-02-28T00:23:38;2.70;72.30
43651;DHT22;29247;50.944;5.382;2023-02-28T00:26:04;2.60;72.20
43651;DHT22;29247;50.944;5.382;2023-02-28T00:28:30;2.60;72.30
43651;DHT22;29247;50.944;5.382;2023-02-28T00:30:57;2.60;72.40
43651;DHT22;29247;50.944;5.382;2023-02-28T00:33:23;2.60;73.40
43651;DHT22;29247;50.944;5.382;2023-02-28T00:35:51;2.60;72.80
43651;DHT22;29247;50.944;5.382;2023-02-28T00:38:19;2.60;72.80
43651;DHT22;29247;50.944;5.382;2023-02-28T00:40:45;2.60;72.80
43651;DHT22;29247;50.944;5.382;2023-02-28T00:43:13;2.50;72.70
43651;DHT22;29247;50.944;5.382;2023-02-28T00:45:41;2.60;72.80
43651;DHT22;29247;50.944;5.382;2023-02-28T00:48:07;2.50;72.70
43651;DHT22;29247;50.944;5.382;2023-02-28T00:50:33;2.50;72.60
43651;DHT22;29247;50.944;5.382;2023-02-28T00:53:01;2.50;72.70
43651;DHT22;29247;50.944;5.382;2023-02-28T00:55:27;2.50;72.80
43651;DHT22;29247;50.944;5.382;2023-02-28T00:57:55;2.50;72.80
43651;DHT22;29247;50.944;5.382;2023-02-28T01:00:21;2.40;72.80
43651;DHT22;29247;50.944;5.382;2023-02-28T01:02:46;2.50;72.90
43651;DHT22;29247;50.944;5.382;2023-02-28T01:05:13;2.40;72.80
43651;DHT22;29247;50.944;5.382;2023-02-28T01:07:39;2.50;72.90
43651;DHT22;29247;50.944;5.382;2023-02-28T01:10:04;2.40;72.80
43651;DHT22;29247;50.944;5.382;2023-02-28T01:12:30;2.40;72.80
43651;DHT22;29247;50.944;5.382;2023-02-28T01:14:56;2.40;72.90
43651;DHT22;29247;50.944;5.382;2023-02-28T01:17:24;2.40;72.90
43651;DHT22;29247;50.944;5.382;2023-02-28T01:19:55;2.30;72.80
43651;DHT22;29247;50.944;5.382;2023-02-28T01:22:23;2.30;72.80
43651;DHT22;29247;50.944;5.382;2023-02-28T01:24:51;2.30;72.80
43651;DHT22;29247;50.944;5.382;2023-02-28T01:27:17;2.30;72.90
43651;DHT22;29247;50.944;5.382;2023-02-28T01:29:43;2.30;73.10
43651;DHT22;29247;50.944;5.382;2023-02-28T01:32:09;2.30;73.10
43651;DHT22;29247;50.944;5.382;2023-02-28T01:34:36;2.30;73.20
43651;DHT22;29247;50.944;5.382;2023-02-28T01:37:01;2.30;73.30
43651;DHT22;29247;50.944;5.382;2023-02-28T01:39:29;2.30;73.20
43651;DHT22;29247;50.944;5.382;2023-02-28T01:41:54;2.30;73.20
43651;DHT22;29247;50.944;5.382;2023-02-28T01:44:57;2.30;73.30
43651;DHT22;29247;50.944;5.382;2023-02-28T01:47:26;2.30;73.30
43651;DHT22;29247;50.944;5.382;2023-02-28T01:49:58;2.20;73.20
43651;DHT22;29247;50.944;5.382;2023-02-28T01:52:29;2.20;74.00
43651;DHT22;29247;50.944;5.382;2023-02-28T01:55:00;2.20;73.20
43651;DHT22;29247;50.944;5.382;2023-02-28T01:57:35;2.20;73.10
43651;DHT22;29247;50.944;5.382;2023-02-28T02:00:13;2.20;73.10
43651;DHT22;29247;50.944;5.382;2023-02-28T02:02:43;2.20;73.20
43651;DHT22;29247;50.944;5.382;2023-02-28T02:05:15;2.20;73.30
43651;DHT22;29247;50.944;5.382;2023-02-28T02:07:43;2.20;73.30
43651;DHT22;29247;50.944;5.382;2023-02-28T02:16:03;2.10;73.80
43651;DHT22;29247;50.944;5.382;2023-02-28T02:18:44;2.00;73.90
43651;DHT22;29247;50.944;5.382;2023-02-28T02:24:54;2.00;74.30
43651;DHT22;29247;50.944;5.382;2023-02-28T02:33:38;1.90;74.40
43651;DHT22;29247;50.944;5.382;2023-02-28T02:36:22;1.90;74.60
43651;DHT22;29247;50.944;5.382;2023-02-28T02:39:14;1.90;74.60
43651;DHT22;29247;50.944;5.382;2023-02-28T02:41:46;1.80;74.60
43651;DHT22;29247;50.944;5.382;2023-02-28T02:47:15;1.80;74.60
43651;DHT22;29247;50.944;5.382;2023-02-28T02:49:48;1.70;74.60
43651;DHT22;29247;50.944;5.382;2023-02-28T02:52:18;1.80;74.70
43651;DHT22;29247;50.944;5.382;2023-02-28T02:54:48;1.80;74.60
43651;DHT22;29247;50.944;5.382;2023-02-28T02:57:24;1.70;74.50
43651;DHT22;29247;50.944;5.382;2023-02-28T02:59:58;1.70;74.60
43651;DHT22;29247;50.944;5.382;2023-02-28T03:02:28;1.70;74.60
43651;DHT22;29247;50.944;5.382;2023-02-28T03:05:04;1.70;74.90
43651;DHT22;29247;50.944;5.382;2023-02-28T03:07:31;1.70;75.10
43651;DHT22;29247;50.944;5.382;2023-02-28T03:09:59;1.60;75.20
43651;DHT22;29247;50.944;5.382;2023-02-28T03:12:34;1.60;75.20
43651;DHT22;29247;50.944;5.382;2023-02-28T03:23:07;1.60;75.40
43651;DHT22;29247;50.944;5.382;2023-02-28T03:31:19;1.60;75.50
43651;DHT22;29247;50.944;5.382;2023-02-28T03:37:16;1.50;75.30
43651;DHT22;29247;50.944;5.382;2023-02-28T03:39:51;1.40;75.30
43651;DHT22;29247;50.944;5.382;2023-02-28T03:42:22;1.40;75.70
43651;DHT22;29247;50.944;5.382;2023-02-28T03:44:59;1.40;76.90
43651;DHT22;29247;50.944;5.382;2023-02-28T03:47:33;1.40;76.60
43651;DHT22;29247;50.944;5.382;2023-02-28T03:53:00;1.40;77.20
43651;DHT22;29247;50.944;5.382;2023-02-28T03:55:30;1.50;77.50
43651;DHT22;29247;50.944;5.382;2023-02-28T03:58:29;1.50;77.50
43651;DHT22;29247;50.944;5.382;2023-02-28T04:01:17;1.50;77.50
43651;DHT22;29247;50.944;5.382;2023-02-28T04:03:45;1.50;77.50
43651;DHT22;29247;50.944;5.382;2023-02-28T04:06:24;1.50;77.40
43651;DHT22;29247;50.944;5.382;2023-02-28T04:08:51;1.50;77.40
43651;DHT22;29247;50.944;5.382;2023-02-28T04:13:42;1.40;77.30
43651;DHT22;29247;50.944;5.382;2023-02-28T04:16:08;1.40;77.30
43651;DHT22;29247;50.944;5.382;2023-02-28T04:18:41;1.50;77.40
43651;DHT22;29247;50.944;5.382;2023-02-28T04:21:08;1.40;77.30
43651;DHT22;29247;50.944;5.382;2023-02-28T04:23:34;1.40;77.20
43651;DHT22;29247;50.944;5.382;2023-02-28T04:25:59;1.40;77.10
43651;DHT22;29247;50.944;5.382;2023-02-28T04:28:25;1.40;77.10
43651;DHT22;29247;50.944;5.382;2023-02-28T04:30:57;1.40;77.00
43651;DHT22;29247;50.944;5.382;2023-02-28T04:33:23;1.30;77.00
43651;DHT22;29247;50.944;5.382;2023-02-28T04:35:58;1.30;77.20
43651;DHT22;29247;50.944;5.382;2023-02-28T04:38:24;1.30;77.30
43651;DHT22;29247;50.944;5.382;2023-02-28T04:40:49;1.30;77.30
43651;DHT22;29247;50.944;5.382;2023-02-28T04:43:15;1.30;77.40
43651;DHT22;29247;50.944;5.382;2023-02-28T04:45:41;1.30;77.20
43651;DHT22;29247;50.944;5.382;2023-02-28T04:48:09;1.30;77.30
43651;DHT22;29247;50.944;5.382;2023-02-28T04:50:35;1.30;77.40
43651;DHT22;29247;50.944;5.382;2023-02-28T04:53:00;1.30;77.60
43651;DHT22;29247;50.944;5.382;2023-02-28T04:55:28;1.20;77.70
43651;DHT22;29247;50.944;5.382;2023-02-28T04:57:56;1.20;77.70
43651;DHT22;29247;50.944;5.382;2023-02-28T05:00:22;1.20;77.70
43651;DHT22;29247;50.944;5.382;2023-02-28T05:02:50;1.20;77.60
43651;DHT22;29247;50.944;5.382;2023-02-28T05:05:17;1.20;77.60
43651;DHT22;29247;50.944;5.382;2023-02-28T05:07:44;1.20;77.50
43651;DHT22;29247;50.944;5.382;2023-02-28T05:10:10;1.20;77.30
43651;DHT22;29247;50.944;5.382;2023-02-28T05:12:36;1.10;77.00
43651;DHT22;29247;50.944;5.382;2023-02-28T05:15:05;1.10;77.10
43651;DHT22;29247;50.944;5.382;2023-02-28T05:17:31;1.00;77.10
43651;DHT22;29247;50.944;5.382;2023-02-28T05:19:57;1.00;77.30
43651;DHT22;29247;50.944;5.382;2023-02-28T05:22:22;0.90;77.40
43651;DHT22;29247;50.944;5.382;2023-02-28T05:24:50;0.90;77.60
43651;DHT22;29247;50.944;5.382;2023-02-28T05:27:18;1.00;77.80
43651;DHT22;29247;50.944;5.382;2023-02-28T05:29:47;0.90;77.90
43651;DHT22;29247;50.944;5.382;2023-02-28T05:32:17;0.90;78.10
43651;DHT22;29247;50.944;5.382;2023-02-28T05:34:45;0.90;78.10
43651;DHT22;29247;50.944;5.382;2023-02-28T05:37:12;0.90;77.90
43651;DHT22;29247;50.944;5.382;2023-02-28T05:39:38;0.90;78.00
43651;DHT22;29247;50.944;5.382;2023-02-28T05:42:04;0.90;78.10
43651;DHT22;29247;50.944;5.382;2023-02-28T05:44:30;0.90;78.30
43651;DHT22;29247;50.944;5.382;2023-02-28T05:46:56;0.90;78.50
43651;DHT22;29247;50.944;5.382;2023-02-28T05:49:21;0.90;78.70
43651;DHT22;29247;50.944;5.382;2023-02-28T05:51:47;0.90;78.70
43651;DHT22;29247;50.944;5.382;2023-02-28T05:54:15;0.90;78.80
43651;DHT22;29247;50.944;5.382;2023-02-28T05:56:43;0.90;78.90
43651;DHT22;29247;50.944;5.382;2023-02-28T05:59:11;0.80;79.00
43651;DHT22;29247;50.944;5.382;2023-02-28T06:01:42;0.80;79.00
43651;DHT22;29247;50.944;5.382;2023-02-28T06:04:17;0.80;79.10
43651;DHT22;29247;50.944;5.382;2023-02-28T06:06:45;0.80;79.30
43651;DHT22;29247;50.944;5.382;2023-02-28T06:09:18;0.80;79.40
43651;DHT22;29247;50.944;5.382;2023-02-28T06:11:44;0.70;79.40
43651;DHT22;29247;50.944;5.382;2023-02-28T06:14:19;0.70;79.50
43651;DHT22;29247;50.944;5.382;2023-02-28T06:16:47;0.70;79.60
43651;DHT22;29247;50.944;5.382;2023-02-28T06:19:13;0.70;79.70
43651;DHT22;29247;50.944;5.382;2023-02-28T06:21:40;0.70;79.90
43651;DHT22;29247;50.944;5.382;2023-02-28T06:24:08;0.70;80.00
43651;DHT22;29247;50.944;5.382;2023-02-28T06:26:36;0.70;80.00
43651;DHT22;29247;50.944;5.382;2023-02-28T06:29:02;0.70;80.00
43651;DHT22;29247;50.944;5.382;2023-02-28T06:31:31;0.70;80.00
43651;DHT22;29247;50.944;5.382;2023-02-28T06:33:57;0.70;80.00
43651;DHT22;29247;50.944;5.382;2023-02-28T06:36:25;0.70;80.10
43651;DHT22;29247;50.944;5.382;2023-02-28T06:38:56;0.70;80.10
43651;DHT22;29247;50.944;5.382;2023-02-28T06:41:25;0.70;80.00
43651;DHT22;29247;50.944;5.382;2023-02-28T06:43:53;0.70;80.00
43651;DHT22;29247;50.944;5.382;2023-02-28T06:46:21;0.70;80.00
43651;DHT22;29247;50.944;5.382;2023-02-28T06:48:49;0.70;80.00
43651;DHT22;29247;50.944;5.382;2023-02-28T06:51:18;0.70;80.00
43651;DHT22;29247;50.944;5.382;2023-02-28T06:53:45;0.70;80.00
43651;DHT22;29247;50.944;5.382;2023-02-28T06:56:13;0.70;79.90
43651;DHT22;29247;50.944;5.382;2023-02-28T06:58:46;0.70;79.80
43651;DHT22;29247;50.944;5.382;2023-02-28T07:01:13;0.80;79.80
43651;DHT22;29247;50.944;5.382;2023-02-28T07:03:42;0.80;79.70
43651;DHT22;29247;50.944;5.382;2023-02-28T07:06:10;0.80;79.60
43651;DHT22;29247;50.944;5.382;2023-02-28T07:08:36;0.80;79.60
43651;DHT22;29247;50.944;5.382;2023-02-28T07:11:02;0.80;79.60
43651;DHT22;29247;50.944;5.382;2023-02-28T07:13:28;0.80;79.50
43651;DHT22;29247;50.944;5.382;2023-02-28T07:16:05;0.80;79.50
43651;DHT22;29247;50.944;5.382;2023-02-28T07:18:32;0.90;79.50
43651;DHT22;29247;50.944;5.382;2023-02-28T07:20:58;0.80;79.60
43651;DHT22;29247;50.944;5.382;2023-02-28T07:23:26;0.80;79.50
43651;DHT22;29247;50.944;5.382;2023-02-28T07:25:52;0.90;79.50
43651;DHT22;29247;50.944;5.382;2023-02-28T07:28:21;0.90;79.40
43651;DHT22;29247;50.944;5.382;2023-02-28T07:30:47;0.90;79.40
43651;DHT22;29247;50.944;5.382;2023-02-28T07:33:13;0.90;79.20
43651;DHT22;29247;50.944;5.382;2023-02-28T07:35:39;1.00;79.20
43651;DHT22;29247;50.944;5.382;2023-02-28T07:38:09;1.00;79.50
43651;DHT22;29247;50.944;5.382;2023-02-28T07:40:36;1.10;79.50
43651;DHT22;29247;50.944;5.382;2023-02-28T07:43:03;1.10;79.20
43651;DHT22;29247;50.944;5.382;2023-02-28T07:45:29;1.20;79.00
43651;DHT22;29247;50.944;5.382;2023-02-28T07:47:59;1.20;78.90
43651;DHT22;29247;50.944;5.382;2023-02-28T07:50:24;1.30;79.00
43651;DHT22;29247;50.944;5.382;2023-02-28T07:52:50;1.30;79.00
43651;DHT22;29247;50.944;5.382;2023-02-28T07:55:16;1.30;78.70
43651;DHT22;29247;50.944;5.382;2023-02-28T07:57:43;1.40;78.50
43651;DHT22;29247;50.944;5.382;2023-02-28T08:00:12;1.40;78.20
43651;DHT22;29247;50.944;5.382;2023-02-28T08:02:38;1.40;77.90
43651;DHT22;29247;50.944;5.382;2023-02-28T08:05:05;1.50;77.90
43651;DHT22;29247;50.944;5.382;2023-02-28T08:07:31;1.60;78.80
43651;DHT22;29247;50.944;5.382;2023-02-28T08:09:58;1.60;78.20
43651;DHT22;29247;50.944;5.382;2023-02-28T08:12:27;1.70;78.10
43651;DHT22;29247;50.944;5.382;2023-02-28T08:14:52;1.80;77.50
43651;DHT22;29247;50.944;5.382;2023-02-28T08:17:20;1.80;76.90
43651;DHT22;29247;50.944;5.382;2023-02-28T08:19:46;1.90;76.40
43651;DHT22;29247;50.944;5.382;2023-02-28T08:22:14;2.00;75.90
43651;DHT22;29247;50.944;5.382;2023-02-28T08:24:44;2.00;75.40
43651;DHT22;29247;50.944;5.382;2023-02-28T08:27:10;2.10;75.10
43651;DHT22;29247;50.944;5.382;2023-02-28T08:29:39;2.20;74.80
43651;DHT22;29247;50.944;5.382;2023-02-28T08:32:07;2.20;74.20
43651;DHT22;29247;50.944;5.382;2023-02-28T08:34:33;2.30;73.70
43651;DHT22;29247;50.944;5.382;2023-02-28T08:36:59;2.40;73.50
43651;DHT22;29247;50.944;5.382;2023-02-28T08:39:24;2.50;73.30
43651;DHT22;29247;50.944;5.382;2023-02-28T08:41:55;2.50;72.80
43651;DHT22;29247;50.944;5.382;2023-02-28T08:44:20;2.60;72.30
43651;DHT22;29247;50.944;5.382;2023-02-28T08:46:48;2.70;71.90
43651;DHT22;29247;50.944;5.382;2023-02-28T08:49:16;2.80;71.60
43651;DHT22;29247;50.944;5.382;2023-02-28T08:51:42;2.80;71.10
43651;DHT22;29247;50.944;5.382;2023-02-28T08:54:08;2.90;70.80
43651;DHT22;29247;50.944;5.382;2023-02-28T08:56:34;2.90;70.60
43651;DHT22;29247;50.944;5.382;2023-02-28T08:59:04;3.00;70.20
43651;DHT22;29247;50.944;5.382;2023-02-28T09:01:35;3.10;69.90
43651;DHT22;29247;50.944;5.382;2023-02-28T09:04:05;3.10;69.40
43651;DHT22;29247;50.944;5.382;2023-02-28T09:06:33;3.20;69.10
43651;DHT22;29247;50.944;5.382;2023-02-28T09:08:59;3.30;68.70
43651;DHT22;29247;50.944;5.382;2023-02-28T09:11:27;3.40;68.20
43651;DHT22;29247;50.944;5.382;2023-02-28T09:13:53;3.50;67.60
43651;DHT22;29247;50.944;5.382;2023-02-28T09:16:21;3.50;66.90
43651;DHT22;29247;50.944;5.382;2023-02-28T09:18:48;3.60;66.40
43651;DHT22;29247;50.944;5.382;2023-02-28T09:21:18;3.70;66.00
43651;DHT22;29247;50.944;5.382;2023-02-28T09:23:46;3.80;65.80
43651;DHT22;29247;50.944;5.382;2023-02-28T09:26:16;3.90;65.20
43651;DHT22;29247;50.944;5.382;2023-02-28T09:28:42;3.90;63.80
43651;DHT22;29247;50.944;5.382;2023-02-28T09:31:16;4.00;62.80
43651;DHT22;29247;50.944;5.382;2023-02-28T09:33:47;4.10;62.20
43651;DHT22;29247;50.944;5.382;2023-02-28T09:36:13;4.20;61.20
43651;DHT22;29247;50.944;5.382;2023-02-28T09:38:39;4.30;60.60
43651;DHT22;29247;50.944;5.382;2023-02-28T09:43:50;4.60;59.70
43651;DHT22;29247;50.944;5.382;2023-02-28T09:46:38;4.70;58.70
43651;DHT22;29247;50.944;5.382;2023-02-28T09:49:19;4.80;58.30
43651;DHT22;29247;50.944;5.382;2023-02-28T09:52:04;4.90;57.80
43651;DHT22;29247;50.944;5.382;2023-02-28T09:54:35;5.10;57.70
43651;DHT22;29247;50.944;5.382;2023-02-28T09:57:17;5.20;57.00
43651;DHT22;29247;50.944;5.382;2023-02-28T10:05:00;5.50;56.10
43651;DHT22;29247;50.944;5.382;2023-02-28T10:07:58;5.70;55.90
43651;DHT22;29247;50.944;5.382;2023-02-28T10:10:48;5.80;55.60
43651;DHT22;29247;50.944;5.382;2023-02-28T10:13:27;5.90;55.40
43651;DHT22;29247;50.944;5.382;2023-02-28T10:16:27;6.00;55.10
43651;DHT22;29247;50.944;5.382;2023-02-28T10:19:03;6.00;54.70
43651;DHT22;29247;50.944;5.382;2023-02-28T10:21:41;6.10;54.40
43651;DHT22;29247;50.944;5.382;2023-02-28T10:27:25;6.20;53.70
43651;DHT22;29247;50.944;5.382;2023-02-28T10:30:04;6.40;53.50
43651;DHT22;29247;50.944;5.382;2023-02-28T10:32:35;6.40;53.10
43651;DHT22;29247;50.944;5.382;2023-02-28T10:37:37;6.40;51.90
43651;DHT22;29247;50.944;5.382;2023-02-28T10:42:58;6.40;50.90
43651;DHT22;29247;50.944;5.382;2023-02-28T10:45:28;6.30;50.10
43651;DHT22;29247;50.944;5.382;2023-02-28T10:47:55;6.40;50.10
43651;DHT22;29247;50.944;5.382;2023-02-28T10:58:56;6.30;48.00
43651;DHT22;29247;50.944;5.382;2023-02-28T11:01:42;6.40;48.30
43651;DHT22;29247;50.944;5.382;2023-02-28T11:04:37;6.50;48.40
43651;DHT22;29247;50.944;5.382;2023-02-28T11:07:19;6.50;47.60
43651;DHT22;29247;50.944;5.382;2023-02-28T11:09:50;6.40;47.50
43651;DHT22;29247;50.944;5.382;2023-02-28T11:12:30;6.50;47.60
43651;DHT22;29247;50.944;5.382;2023-02-28T11:15:01;6.40;47.00
43651;DHT22;29247;50.944;5.382;2023-02-28T11:17:30;6.30;46.70
43651;DHT22;29247;50.944;5.382;2023-02-28T11:20:04;6.40;46.90
43651;DHT22;29247;50.944;5.382;2023-02-28T11:22:37;6.40;46.50
43651;DHT22;29247;50.944;5.382;2023-02-28T11:28:00;6.60;46.80
43651;DHT22;29247;50.944;5.382;2023-02-28T11:30:33;6.70;46.80
43651;DHT22;29247;50.944;5.382;2023-02-28T11:33:01;6.70;46.60
43651;DHT22;29247;50.944;5.382;2023-02-28T11:35:41;6.80;46.40
43651;DHT22;29247;50.944;5.382;2023-02-28T11:38:12;6.90;46.10
43651;DHT22;29247;50.944;5.382;2023-02-28T11:46:50;6.90;45.80
43651;DHT22;29247;50.944;5.382;2023-02-28T11:49:30;7.10;45.70
43651;DHT22;29247;50.944;5.382;2023-02-28T11:52:48;7.00;44.80
43651;DHT22;29247;50.944;5.382;2023-02-28T11:57:36;7.00;44.30
43651;DHT22;29247;50.944;5.382;2023-02-28T12:28:16;7.20;43.60
43651;DHT22;29247;50.944;5.382;2023-02-28T12:34:10;7.20;43.60
43651;DHT22;29247;50.944;5.382;2023-02-28T12:36:37;7.20;43.80
43651;DHT22;29247;50.944;5.382;2023-02-28T12:39:10;7.20;43.80
43651;DHT22;29247;50.944;5.382;2023-02-28T12:41:42;7.20;44.10
43651;DHT22;29247;50.944;5.382;2023-02-28T12:46:52;7.20;43.50
43651;DHT22;29247;50.944;5.382;2023-02-28T12:49:31;7.20;43.30
43651;DHT22;29247;50.944;5.382;2023-02-28T12:51:59;7.10;42.80
43651;DHT22;29247;50.944;5.382;2023-02-28T12:54:40;7.10;42.90
43651;DHT22;29247;50.944;5.382;2023-02-28T12:57:23;7.00;42.90
43651;DHT22;29247;50.944;5.382;2023-02-28T12:59:57;7.00;42.70
43651;DHT22;29247;50.944;5.382;2023-02-28T13:08:34;7.00;43.30
43651;DHT22;29247;50.944;5.382;2023-02-28T13:11:06;7.10;43.40
43651;DHT22;29247;50.944;5.382;2023-02-28T13:13:32;7.10;43.50
43651;DHT22;29247;50.944;5.382;2023-02-28T13:15:59;7.10;43.70
43651;DHT22;29247;50.944;5.382;2023-02-28T13:20:59;7.10;43.70
43651;DHT22;29247;50.944;5.382;2023-02-28T13:23:41;7.10;43.90
43651;DHT22;29247;50.944;5.382;2023-02-28T13:26:22;7.10;44.10
43651;DHT22;29247;50.944;5.382;2023-02-28T13:31:14;7.10;44.30
43651;DHT22;29247;50.944;5.382;2023-02-28T13:38:44;7.10;44.10
43651;DHT22;29247;50.944;5.382;2023-02-28T13:59:54;7.20;44.20
43651;DHT22;29247;50.944;5.382;2023-02-28T14:05:05;7.20;44.40
43651;DHT22;29247;50.944;5.382;2023-02-28T14:07:47;7.20;44.60
43651;DHT22;29247;50.944;5.382;2023-02-28T14:10:30;7.20;44.60
43651;DHT22;29247;50.944;5.382;2023-02-28T14:15:43;7.10;44.80
43651;DHT22;29247;50.944;5.382;2023-02-28T14:18:22;7.00;45.10
43651;DHT22;29247;50.944;5.382;2023-02-28T14:20:57;7.10;45.20
43651;DHT22;29247;50.944;5.382;2023-02-28T14:26:25;7.00;45.00
43651;DHT22;29247;50.944;5.382;2023-02-28T14:35:20;7.00;45.40
43651;DHT22;29247;50.944;5.382;2023-02-28T14:37:49;7.00;45.40
43651;DHT22;29247;50.944;5.382;2023-02-28T14:40:27;6.90;45.40
43651;DHT22;29247;50.944;5.382;2023-02-28T14:43:05;6.90;45.40
43651;DHT22;29247;50.944;5.382;2023-02-28T14:45:35;6.90;45.80
43651;DHT22;29247;50.944;5.382;2023-02-28T14:48:09;6.90;46.00
43651;DHT22;29247;50.944;5.382;2023-02-28T14:50:37;7.00;45.90
43651;DHT22;29247;50.944;5.382;2023-02-28T14:53:03;7.00;45.90
43651;DHT22;29247;50.944;5.382;2023-02-28T14:55:34;7.00;45.80
43651;DHT22;29247;50.944;5.382;2023-02-28T14:58:22;6.90;45.80
43651;DHT22;29247;50.944;5.382;2023-02-28T15:00:50;6.90;45.80
43651;DHT22;29247;50.944;5.382;2023-02-28T15:05:59;6.90;45.60
43651;DHT22;29247;50.944;5.382;2023-02-28T15:08:25;6.90;45.60
43651;DHT22;29247;50.944;5.382;2023-02-28T15:10:58;6.90;45.70
43651;DHT22;29247;50.944;5.382;2023-02-28T15:13:40;6.90;45.90
43651;DHT22;29247;50.944;5.382;2023-02-28T15:18:48;6.90;45.90
43651;DHT22;29247;50.944;5.382;2023-02-28T15:21:26;6.90;46.00
43651;DHT22;29247;50.944;5.382;2023-02-28T15:23:58;6.90;46.10
43651;DHT22;29247;50.944;5.382;2023-02-28T15:26:32;6.90;46.20
43651;DHT22;29247;50.944;5.382;2023-02-28T15:29:06;6.90;46.20
43651;DHT22;29247;50.944;5.382;2023-02-28T15:31:41;6.80;46.20
43651;DHT22;29247;50.944;5.382;2023-02-28T15:36:53;6.80;46.20
43651;DHT22;29247;50.944;5.382;2023-02-28T15:39:25;6.80;46.00
43651;DHT22;29247;50.944;5.382;2023-02-28T15:42:09;6.70;46.10
43651;DHT22;29247;50.944;5.382;2023-02-28T15:44:35;6.80;46.20
43651;DHT22;29247;50.944;5.382;2023-02-28T15:47:12;6.70;45.90
43651;DHT22;29247;50.944;5.382;2023-02-28T15:49:49;6.70;46.00
43651;DHT22;29247;50.944;5.382;2023-02-28T15:52:39;6.60;46.10
43651;DHT22;29247;50.944;5.382;2023-02-28T15:55:27;6.60;46.30
43651;DHT22;29247;50.944;5.382;2023-02-28T15:57:55;6.50;46.50
43651;DHT22;29247;50.944;5.382;2023-02-28T16:00:26;6.50;46.50
43651;DHT22;29247;50.944;5.382;2023-02-28T16:02:52;6.50;46.40
43651;DHT22;29247;50.944;5.382;2023-02-28T16:05:29;6.40;46.40
43651;DHT22;29247;50.944;5.382;2023-02-28T16:08:13;6.30;46.60
43651;DHT22;29247;50.944;5.382;2023-02-28T16:10:39;6.30;46.80
43651;DHT22;29247;50.944;5.382;2023-02-28T16:13:05;6.40;46.80
43651;DHT22;29247;50.944;5.382;2023-02-28T16:15:37;6.40;46.80
43651;DHT22;29247;50.944;5.382;2023-02-28T16:18:11;6.40;46.90
43651;DHT22;29247;50.944;5.382;2023-02-28T16:20:37;6.30;46.90
43651;DHT22;29247;50.944;5.382;2023-02-28T16:23:06;6.30;46.90
43651;DHT22;29247;50.944;5.382;2023-02-28T16:25:40;6.30;47.00
43651;DHT22;29247;50.944;5.382;2023-02-28T16:28:27;6.30;47.10
43651;DHT22;29247;50.944;5.382;2023-02-28T16:30:56;6.20;47.20
43651;DHT22;29247;50.944;5.382;2023-02-28T16:33:22;6.20;47.20
43651;DHT22;29247;50.944;5.382;2023-02-28T16:35:48;6.20;47.20
43651;DHT22;29247;50.944;5.382;2023-02-28T16:38:16;6.20;47.20
43651;DHT22;29247;50.944;5.382;2023-02-28T16:40:42;6.10;47.10
43651;DHT22;29247;50.944;5.382;2023-02-28T16:43:22;6.20;47.30
43651;DHT22;29247;50.944;5.382;2023-02-28T16:45:49;6.10;47.20
43651;DHT22;29247;50.944;5.382;2023-02-28T16:48:22;6.10;47.10
43651;DHT22;29247;50.944;5.382;2023-02-28T16:50:49;6.20;47.30
43651;DHT22;29247;50.944;5.382;2023-02-28T16:53:14;6.10;47.30
43651;DHT22;29247;50.944;5.382;2023-02-28T16:55:40;6.10;47.40
43651;DHT22;29247;50.944;5.382;2023-02-28T16:58:10;6.00;47.60
43651;DHT22;29247;50.944;5.382;2023-02-28T17:00:38;6.00;47.60
43651;DHT22;29247;50.944;5.382;2023-02-28T17:03:05;6.00;47.60
43651;DHT22;29247;50.944;5.382;2023-02-28T17:05:36;6.00;47.60
43651;DHT22;29247;50.944;5.382;2023-02-28T17:08:03;6.00;47.60
43651;DHT22;29247;50.944;5.382;2023-02-28T17:10:29;5.90;47.70
43651;DHT22;29247;50.944;5.382;2023-02-28T17:12:55;5.90;47.70
43651;DHT22;29247;50.944;5.382;2023-02-28T17:15:21;5.90;47.70
43651;DHT22;29247;50.944;5.382;2023-02-28T17:17:47;5.90;47.80
43651;DHT22;29247;50.944;5.382;2023-02-28T17:20:22;5.90;47.90
43651;DHT22;29247;50.944;5.382;2023-02-28T17:22:49;5.80;48.00
43651;DHT22;29247;50.944;5.382;2023-02-28T17:25:18;5.80;48.10
43651;DHT22;29247;50.944;5.382;2023-02-28T17:27:44;5.70;48.30
43651;DHT22;29247;50.944;5.382;2023-02-28T17:30:24;5.70;48.30
43651;DHT22;29247;50.944;5.382;2023-02-28T17:32:55;5.60;48.50
43651;DHT22;29247;50.944;5.382;2023-02-28T17:35:22;5.60;48.70
43651;DHT22;29247;50.944;5.382;2023-02-28T17:37:48;5.60;48.80
43651;DHT22;29247;50.944;5.382;2023-02-28T17:40:20;5.50;48.80
43651;DHT22;29247;50.944;5.382;2023-02-28T17:42:46;5.50;48.90
43651;DHT22;29247;50.944;5.382;2023-02-28T17:45:13;5.40;49.00
43651;DHT22;29247;50.944;5.382;2023-02-28T17:47:39;5.40;49.20
43651;DHT22;29247;50.944;5.382;2023-02-28T17:50:12;5.30;49.30
43651;DHT22;29247;50.944;5.382;2023-02-28T17:52:39;5.30;49.70
43651;DHT22;29247;50.944;5.382;2023-02-28T17:55:09;5.20;49.90
43651;DHT22;29247;50.944;5.382;2023-02-28T17:57:37;5.20;50.20
43651;DHT22;29247;50.944;5.382;2023-02-28T18:00:04;5.10;50.40
43651;DHT22;29247;50.944;5.382;2023-02-28T18:02:32;5.00;50.80
43651;DHT22;29247;50.944;5.382;2023-02-28T18:04:58;5.00;51.20
43651;DHT22;29247;50.944;5.382;2023-02-28T18:07:28;5.00;51.70
43651;DHT22;29247;50.944;5.382;2023-02-28T18:09:54;4.90;52.00
43651;DHT22;29247;50.944;5.382;2023-02-28T18:12:20;4.90;52.40
43651;DHT22;29247;50.944;5.382;2023-02-28T18:14:45;4.80;52.80
43651;DHT22;29247;50.944;5.382;2023-02-28T18:17:15;4.80;53.30
43651;DHT22;29247;50.944;5.382;2023-02-28T18:19:43;4.70;53.70
43651;DHT22;29247;50.944;5.382;2023-02-28T18:22:13;4.70;54.10
43651;DHT22;29247;50.944;5.382;2023-02-28T18:24:39;4.60;54.40
43651;DHT22;29247;50.944;5.382;2023-02-28T18:27:05;4.60;54.70
43651;DHT22;29247;50.944;5.382;2023-02-28T18:29:33;4.50;54.90
43651;DHT22;29247;50.944;5.382;2023-02-28T18:31:59;4.50;55.10
43651;DHT22;29247;50.944;5.382;2023-02-28T18:34:28;4.50;55.20
43651;DHT22;29247;50.944;5.382;2023-02-28T18:36:57;4.40;55.20
43651;DHT22;29247;50.944;5.382;2023-02-28T18:39:23;4.40;55.40
43651;DHT22;29247;50.944;5.382;2023-02-28T18:41:49;4.40;55.40
43651;DHT22;29247;50.944;5.382;2023-02-28T18:44:15;4.30;55.50
43651;DHT22;29247;50.944;5.382;2023-02-28T18:46:43;4.30;55.60
43651;DHT22;29247;50.944;5.382;2023-02-28T18:49:09;4.20;55.80
43651;DHT22;29247;50.944;5.382;2023-02-28T18:51:35;4.20;56.00
43651;DHT22;29247;50.944;5.382;2023-02-28T18:54:04;4.20;56.20